メインページ
METAR-TAF:

METAR-TAF

空港 :

ウェーク島, アメリカ合衆国

緯度: 19-17N, 経度: 166-39E, 海抜: 4m

METAR: 見つかりません

時間: 18:05 (06:05 UTC)

予報

当レポートは8時間5分前の22:00(UTC)に作成
予報は20日の 22時(UTC)から 22日の 04時(UTC)まで有効
北東の風 10kt
視程10km以上
高度2000ftの雲は散在している
高度12000ftの雲は散在している
近辺でにわか雨
21日の 12時(UTC)から 22日の 00時(UTC)まで一時的に
視程: 2206m
高度2000ftの千切れ雲あり
高度12000ftの千切れ雲あり
弱いにわか雨

TAF: PWAK 202200Z 2022/2204 05010KT 9999 VCSH SCT020 SCT120 QNH2970INS TEMPO 2112/2200 8000 -SHRA BKN020 BKN120 TX31/2100Z TN25/2114Z LIMITED METWATCH 2022 TIL 2206

4,000以上の空港の気象観測と天気予報(METAR報とTAF報)

利用可能な観測所は地図上に黄色い丸と赤い丸で示す。

丸の上にカーソルを重ねると観測所名を参照できる。

次にクリックすると気象観測と天気予報を参照できる。

マップの切り替え:黒色「×」印の緑ボタンをクリックして拡大、「-」印の緑ボタンをクリックして縮小、緑色の三角印をクリックして隣りの地図に切り替え


METAR-TAF: